createdAt,value
2019-04-20T00:03:34.675Z,98933.94
2019-04-20T00:06:05.297Z,98937.10
2019-04-20T00:08:37.694Z,98939.19
2019-04-20T00:11:29.518Z,98936.19
2019-04-20T00:14:07.100Z,98938.05
2019-04-20T00:16:37.998Z,98931.73
2019-04-20T00:19:09.214Z,98928.77
2019-04-20T00:22:17.237Z,98928.34
2019-04-20T00:30:51.769Z,98931.58
2019-04-20T00:33:31.134Z,98923.63
2019-04-20T00:35:55.210Z,98925.33
2019-04-20T00:38:27.111Z,98927.36
2019-04-20T00:41:17.201Z,98924.19
2019-04-20T00:43:53.271Z,98923.69
2019-04-20T00:46:35.760Z,98922.59
2019-04-20T00:49:21.640Z,98923.08
2019-04-20T00:52:12.775Z,98915.05
2019-04-20T00:54:26.403Z,98909.45
2019-04-20T00:57:07.820Z,98905.18
2019-04-20T01:00:04.688Z,98913.15
2019-04-20T01:02:37.877Z,98917.21
2019-04-20T01:08:08.623Z,98922.41
2019-04-20T01:13:52.702Z,98926.45
2019-04-20T01:16:45.207Z,98929.64
2019-04-20T01:19:15.925Z,98924.12
2019-04-20T01:21:57.880Z,98928.56
2019-04-20T01:24:31.386Z,98930.41
2019-04-20T01:27:05.655Z,98930.77
2019-04-20T01:29:45.878Z,98930.83
2019-04-20T01:32:26.667Z,98930.65
2019-04-20T01:35:03.706Z,98935.64
2019-04-20T01:37:40.871Z,98929.76
2019-04-20T01:40:46.322Z,98933.50
2019-04-20T01:43:22.674Z,98936.23
2019-04-20T01:46:07.565Z,98925.03
2019-04-20T01:48:38.080Z,98938.91
2019-04-20T01:51:19.728Z,98933.95
2019-04-20T01:54:24.934Z,98931.05
2019-04-20T01:59:56.338Z,98932.13
2019-04-20T02:02:57.041Z,98935.80
2019-04-20T02:05:53.643Z,98937.91
2019-04-20T02:08:21.425Z,98937.00
2019-04-20T02:11:00.946Z,98936.91
2019-04-20T02:13:43.578Z,98930.33
2019-04-20T02:16:19.147Z,98935.22
2019-04-20T02:19:06.587Z,98935.03
2019-04-20T02:21:40.867Z,98935.36
2019-04-20T02:24:04.061Z,98936.30
2019-04-20T02:26:36.739Z,98938.39
2019-04-20T02:29:33.682Z,98932.76
2019-04-20T02:32:23.362Z,98933.09
2019-04-20T02:41:29.852Z,98932.38
2019-04-20T02:44:30.607Z,98936.01
2019-04-20T02:52:20.937Z,98935.19
2019-04-20T02:55:06.302Z,98932.38
2019-04-20T03:00:12.480Z,98933.98
2019-04-20T03:02:19.433Z,98927.48
2019-04-20T03:04:42.259Z,98932.30
2019-04-20T03:07:20.619Z,98926.96
2019-04-20T03:09:58.668Z,98928.09
2019-04-20T03:12:33.154Z,98930.67
2019-04-20T03:14:52.142Z,98926.34
2019-04-20T03:17:35.367Z,98929.99
2019-04-20T03:19:52.544Z,98924.22
2019-04-20T03:22:39.560Z,98928.12
2019-04-20T03:25:09.628Z,98927.87
2019-04-20T03:27:37.191Z,98925.80
2019-04-20T03:30:40.264Z,98924.89
2019-04-20T03:33:11.943Z,98923.91
2019-04-20T03:35:20.025Z,98926.80
2019-04-20T03:37:48.569Z,98916.66
2019-04-20T03:40:12.889Z,98916.72
2019-04-20T03:42:28.890Z,98916.88
2019-04-20T03:45:04.167Z,98916.66
2019-04-20T03:47:42.609Z,98925.20
2019-04-20T03:50:33.646Z,98924.95
2019-04-20T03:53:03.703Z,98920.86
2019-04-20T03:55:44.479Z,98923.34
2019-04-20T03:58:24.329Z,98922.73
2019-04-20T04:01:13.327Z,98922.16
2019-04-20T04:03:53.411Z,98924.66
2019-04-20T04:06:16.346Z,98923.27
2019-04-20T04:08:39.515Z,98926.57
2019-04-20T04:11:22.078Z,98921.00
2019-04-20T04:13:37.768Z,98924.57
2019-04-20T04:16:11.447Z,98923.81
2019-04-20T04:18:42.747Z,98918.55
2019-04-20T04:21:16.149Z,98925.68
2019-04-20T04:23:57.526Z,98926.55
2019-04-20T04:26:32.205Z,98924.89
2019-04-20T04:29:02.759Z,98925.50
2019-04-20T04:31:33.206Z,98929.39
2019-04-20T04:34:04.847Z,98920.53
2019-04-20T04:36:30.150Z,98925.44
2019-04-20T04:39:34.008Z,98921.81
2019-04-20T04:41:36.678Z,98931.77
2019-04-20T04:44:06.148Z,98932.07
2019-04-20T04:46:20.686Z,98936.34
2019-04-20T04:48:52.870Z,98933.89
2019-04-20T04:51:27.407Z,98935.98
2019-04-20T04:53:59.779Z,98940.27
2019-04-20T04:56:25.597Z,98943.55
2019-04-20T04:58:54.147Z,98939.48
2019-04-20T05:01:27.419Z,98948.30
2019-04-20T05:04:21.596Z,98948.52
2019-04-20T05:06:40.644Z,98945.67
2019-04-20T05:09:00.751Z,98944.84
2019-04-20T05:11:29.788Z,98950.50
2019-04-20T05:14:04.098Z,98956.06
2019-04-20T05:17:06.031Z,98951.23
2019-04-20T05:19:23.490Z,98954.40
2019-04-20T05:24:29.174Z,98951.50
2019-04-20T05:27:13.653Z,98951.20
2019-04-20T05:29:27.393Z,98949.17
2019-04-20T05:32:00.855Z,98950.90
2019-04-20T05:34:47.989Z,98955.23
2019-04-20T05:37:23.644Z,98953.77
2019-04-20T05:39:56.237Z,98960.75
2019-04-20T05:42:24.202Z,98961.07
2019-04-20T05:44:49.950Z,98958.41
2019-04-20T05:47:21.704Z,98961.20
2019-04-20T05:49:50.026Z,98956.61
2019-04-20T05:52:42.064Z,98963.59
2019-04-20T05:55:00.724Z,98961.20
2019-04-20T05:57:32.946Z,98969.45
2019-04-20T06:00:05.516Z,98966.48
2019-04-20T06:02:27.736Z,98976.56
2019-04-20T06:05:04.346Z,98970.33
2019-04-20T06:07:31.397Z,98967.19
2019-04-20T06:10:06.108Z,98974.38
2019-04-20T06:12:36.936Z,98972.75
2019-04-20T06:15:06.861Z,98972.95
2019-04-20T06:17:52.871Z,98971.17
2019-04-20T06:20:31.313Z,98974.41
2019-04-20T06:23:28.519Z,98964.37
2019-04-20T06:26:11.049Z,98968.81
2019-04-20T06:28:19.745Z,98976.19
2019-04-20T06:30:48.803Z,98976.25
2019-04-20T06:36:43.011Z,98980.21
2019-04-20T06:39:10.984Z,98984.75
2019-04-20T06:41:54.207Z,98980.23
2019-04-20T06:44:08.209Z,98986.89
2019-04-20T06:46:47.201Z,98985.41
2019-04-20T06:49:19.602Z,98983.09
2019-04-20T06:51:53.282Z,98989.44
2019-04-20T06:54:15.623Z,98980.02
2019-04-20T06:57:00.201Z,98980.88
2019-04-20T06:59:32.214Z,98979.52
2019-04-20T07:04:43.289Z,98982.09
2019-04-20T07:07:10.148Z,98982.09
2019-04-20T07:12:02.896Z,98974.05
2019-04-20T07:14:31.535Z,98996.11
2019-04-20T07:17:20.527Z,98980.35
2019-04-20T07:19:46.578Z,98991.12
2019-04-20T07:22:31.742Z,98992.42
2019-04-20T07:27:27.830Z,98988.27
2019-04-20T07:30:10.706Z,98994.82
2019-04-20T07:32:17.826Z,98994.82
2019-04-20T07:34:55.637Z,98988.83
2019-04-20T07:39:58.885Z,98992.92
2019-04-20T07:42:34.633Z,98985.77
2019-04-20T07:45:12.286Z,98979.52
2019-04-20T07:47:40.550Z,98990.94
2019-04-20T07:50:03.729Z,98985.20
2019-04-20T07:52:14.405Z,98984.52
2019-04-20T07:55:26.288Z,98978.67
2019-04-20T07:57:35.322Z,98983.31
2019-04-20T08:00:06.306Z,98978.77
2019-04-20T08:02:57.355Z,98977.08
2019-04-20T08:05:19.274Z,98968.47
2019-04-20T08:07:51.027Z,98968.47
2019-04-20T08:10:28.709Z,98970.30
2019-04-20T08:15:46.177Z,98967.52
2019-04-20T08:18:19.449Z,98965.13
2019-04-20T08:20:36.857Z,98964.98
2019-04-20T08:22:58.804Z,98965.98
2019-04-20T08:25:30.684Z,98962.50
2019-04-20T08:28:06.373Z,98972.12
2019-04-20T08:31:00.837Z,98967.46
2019-04-20T08:33:34.966Z,98968.43
2019-04-20T08:36:14.796Z,98972.89
2019-04-20T08:41:29.687Z,98962.09
2019-04-20T08:44:35.529Z,98960.06
2019-04-20T08:46:44.605Z,98960.09
2019-04-20T08:49:11.341Z,98951.48
2019-04-20T08:51:45.093Z,98955.70
2019-04-20T08:54:08.642Z,98956.03
2019-04-20T08:56:31.796Z,98952.33
2019-04-20T08:58:52.884Z,98950.84
2019-04-20T09:01:27.359Z,98954.06
2019-04-20T09:04:02.068Z,98953.72
2019-04-20T09:06:41.745Z,98951.75
2019-04-20T09:09:29.253Z,98946.73
2019-04-20T09:11:50.513Z,98948.73
2019-04-20T09:14:02.530Z,98955.23
2019-04-20T09:16:38.890Z,98952.89
2019-04-20T09:19:07.029Z,98949.94
2019-04-20T09:21:47.184Z,98951.48
2019-04-20T09:24:29.901Z,98950.14
2019-04-20T09:26:54.285Z,98948.89
2019-04-20T09:29:23.828Z,98942.57
2019-04-20T09:32:00.772Z,98941.86
2019-04-20T09:34:40.708Z,98943.47
2019-04-20T09:37:22.044Z,98935.92
2019-04-20T09:39:44.972Z,98934.37
2019-04-20T09:44:42.665Z,98933.76
2019-04-20T09:47:27.435Z,98927.38
2019-04-20T09:50:31.966Z,98922.70
2019-04-20T09:53:10.193Z,98925.20
2019-04-20T09:55:42.910Z,98925.64
2019-04-20T09:58:18.004Z,98914.00
2019-04-20T10:01:03.233Z,98912.71
2019-04-20T10:03:22.874Z,98911.22
2019-04-20T10:06:11.702Z,98906.06
2019-04-20T10:08:51.510Z,98908.77
2019-04-20T10:11:23.645Z,98894.67
2019-04-20T10:13:59.059Z,98906.88
2019-04-20T10:16:29.458Z,98899.94
2019-04-20T10:19:25.096Z,98898.89
2019-04-20T10:21:56.884Z,98898.60
2019-04-20T10:24:36.914Z,98892.26
2019-04-20T10:27:16.835Z,98889.80
2019-04-20T10:29:46.480Z,98888.83
2019-04-20T10:32:17.565Z,98889.27
2019-04-20T10:38:46.463Z,98888.78
2019-04-20T10:41:44.535Z,98881.69
2019-04-20T10:44:07.055Z,98885.16
2019-04-20T10:46:56.577Z,98877.45
2019-04-20T10:49:33.246Z,98874.63
2019-04-20T10:52:09.721Z,98875.36
2019-04-20T10:54:45.457Z,98871.05
2019-04-20T10:57:15.534Z,98874.72
2019-04-20T11:00:46.071Z,98873.22
2019-04-20T11:03:22.715Z,98868.73
2019-04-20T11:05:58.513Z,98865.86
2019-04-20T11:08:46.987Z,98866.79
2019-04-20T11:11:23.820Z,98861.12
2019-04-20T11:14:15.454Z,98864.16
2019-04-20T11:16:44.388Z,98861.55
2019-04-20T11:19:19.587Z,98862.92
2019-04-20T11:21:50.181Z,98856.83
2019-04-20T11:24:39.060Z,98855.41
2019-04-20T11:27:20.400Z,98853.31
2019-04-20T11:29:56.166Z,98846.67
2019-04-20T11:32:26.254Z,98844.64
2019-04-20T11:38:58.760Z,98842.88
2019-04-20T11:41:38.986Z,98841.70
2019-04-20T11:44:20.038Z,98838.42
2019-04-20T11:46:56.676Z,98837.69
2019-04-20T11:49:31.624Z,98840.38
2019-04-20T11:52:01.516Z,98824.09
2019-04-20T11:54:37.355Z,98824.63
2019-04-20T11:57:07.102Z,98827.16
2019-04-20T11:59:57.146Z,98827.84
2019-04-20T12:02:58.638Z,98822.08
2019-04-20T12:05:40.796Z,98815.66
2019-04-20T12:08:09.424Z,98817.00
2019-04-20T12:10:39.161Z,98803.38
2019-04-20T12:13:16.423Z,98806.17
2019-04-20T12:15:52.075Z,98799.48
2019-04-20T12:18:27.638Z,98802.28
2019-04-20T12:21:03.416Z,98799.71
2019-04-20T12:23:34.030Z,98796.67
2019-04-20T12:26:13.338Z,98792.39
2019-04-20T12:28:43.378Z,98792.00
2019-04-20T12:31:55.423Z,98793.18
2019-04-20T12:34:30.630Z,98781.14
2019-04-20T12:37:07.154Z,98787.38
2019-04-20T12:39:42.878Z,98781.69
2019-04-20T12:42:19.317Z,98779.41
2019-04-20T12:44:49.995Z,98784.97
2019-04-20T12:47:39.627Z,98788.81
2019-04-20T12:53:40.457Z,98776.38
2019-04-20T12:56:16.818Z,98762.99
2019-04-20T12:58:56.238Z,98761.20
2019-04-20T13:01:26.044Z,98770.19
2019-04-20T13:03:55.477Z,98767.63
2019-04-20T13:06:25.798Z,98764.76
2019-04-20T13:09:15.148Z,98765.07
2019-04-20T13:17:42.121Z,98752.34
2019-04-20T13:20:18.288Z,98754.38
2019-04-20T13:22:55.004Z,98754.10
2019-04-20T13:25:30.858Z,98749.73
2019-04-20T13:28:01.061Z,98748.77
2019-04-20T13:30:50.443Z,98741.58
2019-04-20T13:33:20.217Z,98739.36
2019-04-20T13:35:50.184Z,98739.75
2019-04-20T13:38:25.966Z,98735.56
2019-04-20T13:41:15.753Z,98735.37
2019-04-20T13:44:06.427Z,98732.31
2019-04-20T13:46:45.314Z,98720.24
2019-04-20T13:49:15.242Z,98720.68
2019-04-20T13:52:04.971Z,98718.66
2019-04-20T13:54:34.625Z,98717.50
2019-04-20T14:00:59.702Z,98708.50
2019-04-20T14:03:40.770Z,98711.55
2019-04-20T14:06:20.907Z,98700.64
2019-04-20T14:08:51.473Z,98705.34
2019-04-20T14:11:41.410Z,98701.94
2019-04-20T14:14:17.184Z,98697.73
2019-04-20T14:16:53.265Z,98688.58
2019-04-20T14:19:23.174Z,98686.59
2019-04-20T14:22:13.233Z,98689.67
2019-04-20T14:24:49.032Z,98692.52
2019-04-20T14:27:19.046Z,98686.88
2019-04-20T14:29:59.215Z,98679.66
2019-04-20T14:32:39.216Z,98685.00
2019-04-20T14:35:09.190Z,98678.07
2019-04-20T14:37:59.669Z,98680.81
2019-04-20T14:43:36.438Z,98673.77
2019-04-20T14:46:12.681Z,98674.39
2019-04-20T14:48:49.020Z,98678.00
2019-04-20T14:51:25.661Z,98671.36
2019-04-20T14:54:05.520Z,98665.61
2019-04-20T14:56:41.326Z,98662.53
2019-04-20T15:02:17.529Z,98661.13
2019-04-20T15:07:42.709Z,98652.60
2019-04-20T15:10:22.757Z,98659.05
2019-04-20T15:12:58.717Z,98661.23
2019-04-20T15:15:42.196Z,98651.78
2019-04-20T15:24:07.586Z,98646.71
2019-04-20T15:26:38.370Z,98640.62
2019-04-20T15:29:28.378Z,98641.81
2019-04-20T15:32:08.152Z,98630.75
2019-04-20T15:34:44.663Z,98640.25
2019-04-20T15:37:23.613Z,98642.85
2019-04-20T15:39:52.921Z,98635.98
2019-04-20T15:42:23.346Z,98630.97
2019-04-20T15:51:06.164Z,98617.65
2019-04-20T15:53:35.572Z,98618.65
2019-04-20T15:56:08.018Z,98621.66
2019-04-20T15:58:41.579Z,98615.61
2019-04-20T16:01:12.173Z,98618.77
2019-04-20T16:04:12.726Z,98618.37
2019-04-20T16:09:35.903Z,98613.28
2019-04-20T16:12:26.835Z,98617.32
2019-04-20T16:15:03.815Z,98616.56
2019-04-20T16:17:43.565Z,98608.30
2019-04-20T16:20:20.219Z,98605.84
2019-04-20T16:22:52.271Z,98599.59
2019-04-20T16:25:47.885Z,98596.78
2019-04-20T16:28:17.411Z,98601.18
2019-04-20T16:31:10.072Z,98595.23
2019-04-20T16:33:44.284Z,98594.28
2019-04-20T16:36:23.948Z,98591.45
2019-04-20T16:38:53.632Z,98594.08
2019-04-20T16:41:44.472Z,98594.27
2019-04-20T16:44:25.039Z,98586.92
2019-04-20T16:47:00.524Z,98587.17
2019-04-20T16:49:41.161Z,98586.80
2019-04-20T16:52:16.847Z,98582.57
2019-04-20T16:54:53.563Z,98587.50
2019-04-20T16:57:29.831Z,98583.16
2019-04-20T17:03:39.044Z,98574.81
2019-04-20T17:09:12.196Z,98579.88
2019-04-20T17:11:48.258Z,98577.72
2019-04-20T17:14:19.074Z,98579.50
2019-04-20T17:17:07.875Z,98579.22
2019-04-20T17:19:37.654Z,98578.69
2019-04-20T17:22:27.657Z,98575.39
2019-04-20T17:28:28.986Z,98572.78
2019-04-20T17:31:31.892Z,98572.97
2019-04-20T17:34:17.095Z,98577.11
2019-04-20T17:36:52.632Z,98578.38
2019-04-20T17:39:41.204Z,98581.47
2019-04-20T17:42:23.575Z,98579.55
2019-04-20T17:44:58.717Z,98578.09
2019-04-20T17:47:44.168Z,98577.14
2019-04-20T17:50:20.140Z,98579.38
2019-04-20T17:52:54.807Z,98579.69
2019-04-20T18:01:41.211Z,98582.45
2019-04-20T18:07:03.739Z,98584.35
2019-04-20T18:09:56.530Z,98584.00
2019-04-20T18:12:25.201Z,98585.17
2019-04-20T18:15:08.169Z,98582.78
2019-04-20T18:18:07.193Z,98586.60
2019-04-20T18:23:28.250Z,98584.33
2019-04-20T18:26:23.720Z,98586.21
2019-04-20T18:29:00.383Z,98589.23
2019-04-20T18:31:49.334Z,98592.35
2019-04-20T18:40:36.470Z,98597.52
2019-04-20T18:48:55.206Z,98602.39
2019-04-20T18:51:15.478Z,98605.25
2019-04-20T18:53:53.486Z,98607.77
2019-04-20T18:56:33.075Z,98605.63
2019-04-20T18:59:30.329Z,98602.62
2019-04-20T19:02:01.180Z,98605.82
2019-04-20T19:04:37.662Z,98610.35
2019-04-20T19:07:14.154Z,98613.50
2019-04-20T19:09:55.281Z,98613.36
2019-04-20T19:15:56.451Z,98614.13
2019-04-20T19:18:50.458Z,98611.93
2019-04-20T19:21:15.202Z,98620.25
2019-04-20T19:24:01.677Z,98620.37
2019-04-20T19:26:28.566Z,98619.79
2019-04-20T19:32:32.445Z,98622.00
2019-04-20T19:38:20.335Z,98626.09
2019-04-20T19:41:20.423Z,98621.59
2019-04-20T19:43:54.948Z,98620.80
2019-04-20T19:49:04.097Z,98628.23
2019-04-20T19:52:02.749Z,98629.15
2019-04-20T19:54:38.907Z,98624.73
2019-04-20T19:57:05.130Z,98632.86
2019-04-20T19:59:35.621Z,98624.12
2019-04-20T20:02:05.553Z,98627.22
2019-04-20T20:04:48.439Z,98627.45
2019-04-20T20:07:26.313Z,98629.30
2019-04-20T20:09:58.426Z,98624.86
2019-04-20T20:12:31.437Z,98627.91
2019-04-20T20:18:27.121Z,98622.80
2019-04-20T20:21:12.307Z,98624.56
2019-04-20T20:23:38.734Z,98620.73
2019-04-20T20:26:13.008Z,98622.13
2019-04-20T20:29:08.196Z,98619.82
2019-04-20T20:31:54.070Z,98622.53
2019-04-20T20:34:24.549Z,98620.83
2019-04-20T20:36:54.850Z,98627.96
2019-04-20T20:39:35.108Z,98628.08
2019-04-20T20:42:21.885Z,98626.84
2019-04-20T20:44:54.068Z,98631.09
2019-04-20T20:47:49.059Z,98628.62
2019-04-20T20:50:41.076Z,98627.61
2019-04-20T20:53:12.560Z,98626.52
2019-04-20T20:55:44.128Z,98634.31
2019-04-20T20:58:19.189Z,98626.61
2019-04-20T21:00:57.520Z,98631.97
2019-04-20T21:03:34.352Z,98630.63
2019-04-20T21:06:44.605Z,98632.11
2019-04-20T21:09:21.010Z,98628.36
2019-04-20T21:12:00.699Z,98622.73
2019-04-20T21:14:35.339Z,98626.91
2019-04-20T21:17:16.006Z,98630.70
2019-04-20T21:20:07.398Z,98631.80
2019-04-20T21:22:44.591Z,98625.19
2019-04-20T21:27:44.446Z,98623.44
2019-04-20T21:30:39.988Z,98622.80
2019-04-20T21:33:11.595Z,98618.51
2019-04-20T21:35:52.196Z,98619.90
2019-04-20T21:38:31.388Z,98620.23
2019-04-20T21:41:08.199Z,98612.95
2019-04-20T21:43:42.904Z,98609.70
2019-04-20T21:46:16.572Z,98612.00
2019-04-20T21:49:08.198Z,98611.53
2019-04-20T21:51:37.304Z,98608.80
2019-04-20T21:54:06.679Z,98606.33
2019-04-20T21:56:52.505Z,98603.22
2019-04-20T21:59:44.407Z,98599.77
2019-04-20T22:02:19.481Z,98581.09
2019-04-20T22:07:50.390Z,98584.77
2019-04-20T22:10:40.807Z,98580.61
2019-04-20T22:13:38.840Z,98584.95
2019-04-20T22:16:13.133Z,98584.95
2019-04-20T22:19:22.390Z,98585.59
2019-04-20T22:21:58.431Z,98585.59
2019-04-20T22:24:40.253Z,98592.52
2019-04-20T22:27:15.798Z,98587.78
2019-04-20T22:29:52.212Z,98590.53
2019-04-20T22:32:36.711Z,98585.30
2019-04-20T22:35:18.843Z,98577.16
2019-04-20T22:38:08.931Z,98595.41
2019-04-20T22:40:56.614Z,98589.84
2019-04-20T22:43:40.254Z,98589.84
2019-04-20T22:46:24.773Z,98568.48
2019-04-20T22:49:15.502Z,98568.48
2019-04-20T22:51:44.794Z,98592.07
2019-04-20T22:54:23.329Z,98583.66
2019-04-20T22:57:02.294Z,98579.23
2019-04-20T22:59:47.068Z,98574.25
2019-04-20T23:02:22.961Z,98549.23
2019-04-20T23:04:53.155Z,98549.23
2019-04-20T23:07:48.711Z,98567.39
2019-04-20T23:10:40.885Z,98557.71
2019-04-20T23:13:22.085Z,98575.84
2019-04-20T23:15:55.411Z,98575.84
2019-04-20T23:18:31.929Z,98553.78
2019-04-20T23:21:10.847Z,98567.70
2019-04-20T23:24:09.287Z,98564.38
2019-04-20T23:26:45.937Z,98564.38
2019-04-20T23:29:22.694Z,98564.03
2019-04-20T23:32:01.380Z,98560.33
2019-04-20T23:34:34.601Z,98555.47
2019-04-20T23:37:16.267Z,98545.06
2019-04-20T23:39:49.191Z,98554.09
2019-04-20T23:42:44.498Z,98551.53
2019-04-20T23:45:43.875Z,98555.28
2019-04-20T23:48:37.467Z,98555.10
2019-04-20T23:51:36.243Z,98553.23
2019-04-20T23:53:59.708Z,98548.61
2019-04-20T23:56:30.367Z,98544.81
2019-04-20T23:59:06.471Z,98545.95
